createdAt,value
2023-05-21T00:00:11.204Z,3.58
2023-05-21T00:02:40.650Z,3.78
2023-05-21T00:05:14.362Z,2.47
2023-05-21T00:10:08.487Z,1.98
2023-05-21T00:12:35.237Z,2.90
2023-05-21T00:15:02.050Z,3.55
2023-05-21T00:17:28.754Z,4.63
2023-05-21T00:19:56.856Z,3.58
2023-05-21T00:22:24.089Z,3.40
2023-05-21T00:24:50.765Z,2.95
2023-05-21T00:27:17.608Z,3.30
2023-05-21T00:29:44.561Z,3.67
2023-05-21T00:32:11.681Z,2.60
2023-05-21T00:34:38.822Z,3.55
2023-05-21T00:37:05.499Z,2.40
2023-05-21T00:39:32.104Z,4.03
2023-05-21T00:42:00.423Z,5.50
2023-05-21T00:44:28.136Z,2.83
2023-05-21T00:46:55.067Z,3.92
2023-05-21T00:49:24.347Z,3.13
2023-05-21T00:51:51.934Z,4.53
2023-05-21T00:54:18.993Z,4.53
2023-05-21T00:56:46.797Z,6.78
2023-05-21T00:59:16.485Z,5.82
2023-05-21T01:01:46.473Z,3.95
2023-05-21T01:04:13.547Z,6.90
2023-05-21T01:06:40.196Z,5.95
2023-05-21T01:09:09.146Z,5.55
2023-05-21T01:14:12.603Z,4.10
2023-05-21T01:16:42.158Z,5.70
2023-05-21T01:19:14.166Z,5.15
2023-05-21T01:21:44.747Z,6.53
2023-05-21T01:24:11.571Z,8.18
2023-05-21T01:26:39.022Z,6.43
2023-05-21T01:29:06.808Z,6.18
2023-05-21T01:31:48.379Z,6.32
2023-05-21T01:34:18.169Z,5.32
2023-05-21T01:36:52.595Z,6.47
2023-05-21T01:39:26.265Z,5.70
2023-05-21T01:41:54.255Z,5.53
2023-05-21T01:44:23.060Z,7.65
2023-05-21T01:46:50.867Z,4.53
2023-05-21T01:49:17.913Z,8.32
2023-05-21T01:51:45.003Z,6.43
2023-05-21T01:54:11.621Z,6.40
2023-05-21T01:56:38.528Z,5.50
2023-05-21T01:59:05.912Z,5.70
2023-05-21T02:01:32.727Z,6.43
2023-05-21T02:03:59.470Z,7.60
2023-05-21T02:06:26.497Z,5.57
2023-05-21T02:08:53.454Z,4.63
2023-05-21T02:11:20.114Z,6.75
2023-05-21T02:13:46.804Z,7.75
2023-05-21T02:16:15.922Z,6.07
2023-05-21T02:18:46.352Z,5.65
2023-05-21T02:21:13.214Z,7.45
2023-05-21T02:26:08.691Z,8.73
2023-05-21T02:28:36.376Z,5.63
2023-05-21T02:31:03.085Z,6.72
2023-05-21T02:33:29.733Z,4.55
2023-05-21T02:35:56.499Z,4.40
2023-05-21T02:38:25.847Z,4.88
2023-05-21T02:40:53.097Z,4.95
2023-05-21T02:43:20.161Z,7.00
2023-05-21T02:45:47.034Z,4.22
2023-05-21T02:48:14.643Z,5.15
2023-05-21T02:50:41.969Z,5.60
2023-05-21T02:53:08.873Z,5.68
2023-05-21T02:55:36.415Z,4.68
2023-05-21T02:58:03.373Z,5.63
2023-05-21T03:00:30.089Z,4.63
2023-05-21T03:02:56.885Z,3.70
2023-05-21T03:05:24.432Z,6.60
2023-05-21T03:07:51.356Z,6.63
2023-05-21T03:10:18.245Z,5.20
2023-05-21T03:12:44.956Z,5.88
2023-05-21T03:15:14.682Z,4.70
2023-05-21T03:17:44.526Z,6.28
2023-05-21T03:20:18.640Z,4.38
2023-05-21T03:22:46.620Z,3.83
2023-05-21T03:25:13.365Z,5.05
2023-05-21T03:27:40.254Z,4.80
2023-05-21T03:30:18.413Z,2.30
2023-05-21T03:33:06.422Z,3.90
2023-05-21T03:35:33.535Z,5.47
2023-05-21T03:38:00.520Z,4.43
2023-05-21T03:40:27.616Z,5.75
2023-05-21T03:42:54.322Z,5.22
2023-05-21T03:45:21.463Z,4.20
2023-05-21T03:48:02.021Z,5.80
2023-05-21T03:50:29.723Z,5.57
2023-05-21T03:52:56.502Z,6.15
2023-05-21T03:55:23.224Z,4.32
2023-05-21T03:57:50.190Z,6.97
2023-05-21T04:00:17.556Z,4.18
2023-05-21T04:02:46.944Z,3.20
2023-05-21T04:05:16.528Z,3.75
2023-05-21T04:07:46.316Z,5.47
2023-05-21T04:10:13.041Z,3.38
2023-05-21T04:12:39.646Z,4.07
2023-05-21T04:15:06.934Z,4.40
2023-05-21T04:17:35.387Z,5.00
2023-05-21T04:20:02.151Z,4.43
2023-05-21T04:22:30.542Z,2.72
2023-05-21T04:24:59.312Z,3.75
2023-05-21T04:27:31.557Z,3.38
2023-05-21T04:29:58.422Z,3.10
2023-05-21T04:32:25.101Z,4.25
2023-05-21T04:34:51.772Z,3.33
2023-05-21T04:37:18.450Z,2.70
2023-05-21T04:39:46.852Z,4.18
2023-05-21T04:42:13.541Z,2.67
2023-05-21T04:44:44.234Z,3.75
2023-05-21T04:47:12.356Z,5.10
2023-05-21T04:49:39.208Z,3.83
2023-05-21T04:52:05.821Z,7.95
2023-05-21T04:54:32.595Z,4.90
2023-05-21T04:56:59.251Z,4.15
2023-05-21T04:59:25.956Z,7.03
2023-05-21T05:01:52.716Z,3.05
2023-05-21T05:04:21.513Z,3.55
2023-05-21T05:06:48.576Z,5.20
2023-05-21T05:09:15.543Z,7.07
2023-05-21T05:11:42.224Z,2.30
2023-05-21T05:14:08.904Z,2.28
2023-05-21T05:16:36.339Z,4.38
2023-05-21T05:19:03.010Z,4.18
2023-05-21T05:21:29.921Z,3.45
2023-05-21T05:23:56.636Z,2.88
2023-05-21T05:26:27.060Z,4.13
2023-05-21T05:28:54.286Z,3.75
2023-05-21T05:31:20.995Z,1.80
2023-05-21T05:33:48.664Z,2.88
2023-05-21T05:36:15.399Z,3.03
2023-05-21T05:38:42.145Z,3.40
2023-05-21T05:41:10.476Z,3.28
2023-05-21T05:43:37.248Z,2.65
2023-05-21T05:46:04.024Z,3.78
2023-05-21T05:48:31.176Z,5.22
2023-05-21T05:53:26.205Z,3.42
2023-05-21T05:55:53.835Z,3.20
2023-05-21T05:58:20.630Z,5.75
2023-05-21T06:00:57.459Z,3.15
2023-05-21T06:05:53.129Z,3.97
2023-05-21T06:08:20.601Z,3.13
2023-05-21T06:10:47.316Z,3.47
2023-05-21T06:13:14.885Z,4.85
2023-05-21T06:15:43.204Z,4.70
2023-05-21T06:18:10.145Z,4.65
2023-05-21T06:20:37.162Z,3.90
2023-05-21T06:23:04.287Z,3.17
2023-05-21T06:25:31.909Z,4.72
2023-05-21T06:30:27.505Z,3.80
2023-05-21T06:32:54.312Z,5.30
2023-05-21T06:35:21.959Z,3.85
2023-05-21T06:37:49.075Z,3.05
2023-05-21T06:40:16.262Z,3.63
2023-05-21T06:42:43.258Z,2.55
2023-05-21T06:45:22.197Z,4.28
2023-05-21T06:47:52.754Z,4.95
2023-05-21T06:50:20.204Z,3.75
2023-05-21T06:52:47.067Z,7.15
2023-05-21T06:55:14.027Z,6.00
2023-05-21T06:58:07.128Z,7.90
2023-05-21T07:00:33.983Z,5.07
2023-05-21T07:03:00.736Z,7.57
2023-05-21T07:05:27.511Z,7.97
2023-05-21T07:07:54.909Z,4.88
2023-05-21T07:10:21.792Z,5.18
2023-05-21T07:12:48.443Z,4.22
2023-05-21T07:15:15.309Z,3.95
2023-05-21T07:17:42.030Z,5.10
2023-05-21T07:20:10.089Z,4.65
2023-05-21T07:22:39.640Z,4.30
2023-05-21T07:25:08.641Z,4.10
2023-05-21T07:27:35.615Z,4.85
2023-05-21T07:30:03.964Z,5.28
2023-05-21T07:32:30.927Z,4.07
2023-05-21T07:35:02.074Z,5.80
2023-05-21T07:37:30.459Z,4.05
2023-05-21T07:39:58.748Z,3.95
2023-05-21T07:42:26.429Z,6.60
2023-05-21T07:44:54.527Z,4.32
2023-05-21T07:47:23.607Z,4.55
2023-05-21T07:49:51.164Z,4.43
2023-05-21T07:52:18.203Z,6.47
2023-05-21T07:54:44.915Z,4.30
2023-05-21T07:57:11.663Z,6.55
2023-05-21T07:59:51.164Z,3.90
2023-05-21T08:02:17.920Z,5.05
2023-05-21T08:04:44.692Z,5.82
2023-05-21T08:07:12.981Z,3.83
2023-05-21T08:09:39.696Z,4.63
2023-05-21T08:12:08.219Z,3.83
2023-05-21T08:14:34.948Z,5.88
2023-05-21T08:17:02.212Z,6.40
2023-05-21T08:19:29.189Z,8.40
2023-05-21T08:21:56.156Z,4.78
2023-05-21T08:24:24.370Z,4.60
2023-05-21T08:26:51.268Z,7.82
2023-05-21T08:29:18.640Z,5.38
2023-05-21T08:31:45.912Z,5.03
2023-05-21T08:34:12.559Z,4.82
2023-05-21T08:36:47.030Z,9.18
2023-05-21T08:39:32.072Z,6.20
2023-05-21T08:42:10.031Z,7.00
2023-05-21T08:44:42.110Z,6.30
2023-05-21T08:47:13.989Z,5.57
2023-05-21T08:49:42.904Z,5.30
2023-05-21T08:52:10.072Z,5.65
2023-05-21T08:54:37.189Z,3.92
2023-05-21T08:57:04.718Z,5.80
2023-05-21T08:59:31.556Z,7.15
2023-05-21T09:01:59.997Z,5.15
2023-05-21T09:04:34.158Z,4.97
2023-05-21T09:07:02.770Z,5.45
2023-05-21T09:09:55.307Z,6.32
2023-05-21T09:12:24.585Z,6.82
2023-05-21T09:14:52.256Z,5.55
2023-05-21T09:17:22.245Z,6.53
2023-05-21T09:20:14.927Z,5.80
2023-05-21T09:22:51.527Z,5.80
2023-05-21T09:25:22.982Z,6.40
2023-05-21T09:27:50.386Z,5.72
2023-05-21T09:30:20.867Z,6.38
2023-05-21T09:32:57.567Z,5.25
2023-05-21T09:35:24.384Z,4.85
2023-05-21T09:37:53.476Z,5.53
2023-05-21T09:40:22.137Z,8.63
2023-05-21T09:42:50.810Z,6.75
2023-05-21T09:45:18.975Z,6.53
2023-05-21T09:47:46.731Z,6.38
2023-05-21T09:50:19.592Z,6.70
2023-05-21T09:52:47.432Z,6.28
2023-05-21T09:55:14.933Z,5.65
2023-05-21T09:57:50.733Z,7.15
2023-05-21T10:00:27.222Z,4.75
2023-05-21T10:02:58.342Z,5.55
2023-05-21T10:05:28.239Z,5.88
2023-05-21T10:08:02.246Z,5.90
2023-05-21T10:10:30.421Z,8.18
2023-05-21T10:13:09.136Z,6.70
2023-05-21T10:15:40.709Z,7.45
2023-05-21T10:18:10.122Z,6.80
2023-05-21T10:20:38.328Z,6.55
2023-05-21T10:23:06.150Z,5.95
2023-05-21T10:27:59.531Z,6.95
2023-05-21T10:30:26.129Z,6.22
2023-05-21T10:32:55.872Z,6.90
2023-05-21T10:35:23.149Z,8.45
2023-05-21T10:37:51.569Z,8.50
2023-05-21T10:40:18.281Z,7.88
2023-05-21T10:43:03.627Z,10.20
2023-05-21T10:45:59.114Z,6.18
2023-05-21T10:48:35.666Z,7.13
2023-05-21T10:51:25.066Z,7.90
2023-05-21T10:54:03.754Z,7.60
2023-05-21T10:56:41.783Z,7.10
2023-05-21T10:59:23.495Z,7.68
2023-05-21T11:01:55.244Z,7.32
2023-05-21T11:04:30.123Z,7.53
2023-05-21T11:06:59.127Z,6.22
2023-05-21T11:09:27.314Z,8.20
2023-05-21T11:11:58.179Z,7.22
2023-05-21T11:14:32.808Z,7.90
2023-05-21T11:17:00.344Z,6.32
2023-05-21T11:22:21.319Z,7.32
2023-05-21T11:24:50.611Z,10.05
2023-05-21T11:27:38.479Z,6.50
2023-05-21T11:30:08.192Z,7.70
2023-05-21T11:32:40.036Z,8.23
2023-05-21T11:35:07.236Z,10.40
2023-05-21T11:37:34.921Z,6.25
2023-05-21T11:40:28.344Z,9.05
2023-05-21T11:42:56.220Z,9.25
2023-05-21T11:45:28.803Z,7.78
2023-05-21T11:47:56.288Z,7.78
2023-05-21T11:50:23.100Z,7.57
2023-05-21T11:52:50.963Z,7.10
2023-05-21T11:55:25.929Z,6.25
2023-05-21T11:57:54.403Z,5.47
2023-05-21T12:00:21.645Z,5.32
2023-05-21T12:02:51.682Z,6.40
2023-05-21T12:05:18.675Z,6.05
2023-05-21T12:07:52.465Z,6.05
2023-05-21T12:10:23.429Z,5.53
2023-05-21T12:12:55.604Z,5.60
2023-05-21T12:17:52.807Z,4.85
2023-05-21T12:20:19.992Z,5.05
2023-05-21T12:22:49.092Z,6.15
2023-05-21T12:25:19.999Z,5.82
2023-05-21T12:27:48.356Z,5.40
2023-05-21T12:30:15.108Z,6.43
2023-05-21T12:32:45.802Z,5.22
2023-05-21T12:35:23.077Z,5.55
2023-05-21T12:37:51.126Z,6.38
2023-05-21T12:40:18.315Z,7.22
2023-05-21T12:42:45.274Z,5.20
2023-05-21T12:45:12.654Z,9.02
2023-05-21T12:47:39.491Z,7.22
2023-05-21T12:50:14.066Z,5.97
2023-05-21T12:52:43.065Z,6.53
2023-05-21T12:55:13.665Z,5.32
2023-05-21T12:57:40.513Z,5.30
2023-05-21T13:00:08.830Z,9.35
2023-05-21T13:02:43.048Z,6.07
2023-05-21T13:05:19.433Z,5.85
2023-05-21T13:07:51.047Z,5.45
2023-05-21T13:10:18.010Z,8.38
2023-05-21T13:12:45.417Z,6.07
2023-05-21T13:15:12.230Z,6.55
2023-05-21T13:17:39.064Z,8.15
2023-05-21T13:20:16.258Z,6.38
2023-05-21T13:22:44.250Z,7.10
2023-05-21T13:25:11.722Z,6.70
2023-05-21T13:30:06.669Z,5.28
2023-05-21T13:32:33.517Z,7.55
2023-05-21T13:35:00.277Z,8.00
2023-05-21T13:37:26.960Z,7.97
2023-05-21T13:39:53.666Z,6.45
2023-05-21T13:42:21.172Z,6.40
2023-05-21T13:44:48.293Z,7.80
2023-05-21T13:47:15.388Z,7.28
2023-05-21T13:49:42.582Z,7.43
2023-05-21T13:52:09.624Z,6.18
2023-05-21T13:54:36.855Z,7.80
2023-05-21T13:57:04.383Z,6.75
2023-05-21T13:59:33.428Z,8.95
2023-05-21T14:02:01.257Z,8.82
2023-05-21T14:04:28.181Z,8.77
2023-05-21T14:06:54.937Z,6.28
2023-05-21T14:09:23.312Z,6.50
2023-05-21T14:11:50.161Z,5.55
2023-05-21T14:14:19.048Z,5.72
2023-05-21T14:16:49.702Z,6.90
2023-05-21T14:19:16.937Z,7.68
2023-05-21T14:24:10.264Z,8.43
2023-05-21T14:26:43.061Z,7.10
2023-05-21T14:29:10.257Z,6.32
2023-05-21T14:34:06.757Z,6.00
2023-05-21T14:36:33.407Z,7.53
2023-05-21T14:39:00.188Z,6.50
2023-05-21T14:41:27.778Z,7.38
2023-05-21T14:43:54.699Z,8.18
2023-05-21T14:46:21.810Z,8.25
2023-05-21T14:51:15.379Z,7.50
2023-05-21T14:53:42.062Z,6.50
2023-05-21T14:56:08.924Z,7.13
2023-05-21T14:58:37.817Z,9.05
2023-05-21T15:01:04.659Z,5.95
2023-05-21T15:03:31.611Z,6.28
2023-05-21T15:06:00.756Z,6.70
2023-05-21T15:08:27.468Z,6.35
2023-05-21T15:10:54.100Z,7.32
2023-05-21T15:13:23.244Z,7.20
2023-05-21T15:15:50.139Z,7.30
2023-05-21T15:18:16.820Z,6.85
2023-05-21T15:20:43.578Z,7.50
2023-05-21T15:23:16.661Z,5.85
2023-05-21T15:25:44.792Z,6.20
2023-05-21T15:28:14.225Z,6.75
2023-05-21T15:30:40.857Z,5.68
2023-05-21T15:33:07.571Z,6.97
2023-05-21T15:35:36.379Z,5.05
2023-05-21T15:38:03.505Z,10.32
2023-05-21T15:40:30.159Z,7.10
2023-05-21T15:42:56.948Z,5.65
2023-05-21T15:45:24.640Z,9.27
2023-05-21T15:47:51.274Z,6.68
2023-05-21T15:50:17.973Z,5.40
2023-05-21T15:52:44.555Z,7.10
2023-05-21T15:55:11.325Z,4.78
2023-05-21T15:57:37.997Z,7.05
2023-05-21T16:00:05.086Z,7.82
2023-05-21T16:02:35.609Z,9.05
2023-05-21T16:05:02.544Z,5.70
2023-05-21T16:07:29.159Z,6.40
2023-05-21T16:09:55.894Z,5.75
2023-05-21T16:12:22.553Z,6.85
2023-05-21T16:14:51.990Z,5.28
2023-05-21T16:17:19.892Z,8.13
2023-05-21T16:19:47.322Z,6.07
2023-05-21T16:22:14.693Z,6.80
2023-05-21T16:24:41.480Z,8.10
2023-05-21T16:27:08.176Z,7.13
2023-05-21T16:29:34.945Z,9.05
2023-05-21T16:32:01.670Z,6.90
2023-05-21T16:34:29.583Z,7.95
2023-05-21T16:36:56.414Z,7.60
2023-05-21T16:39:23.275Z,6.95
2023-05-21T16:41:50.003Z,6.22
2023-05-21T16:44:20.159Z,8.50
2023-05-21T16:46:46.833Z,6.13
2023-05-21T16:49:13.660Z,7.40
2023-05-21T16:51:40.582Z,6.65
2023-05-21T16:54:07.242Z,7.55
2023-05-21T16:56:33.978Z,7.47
2023-05-21T16:59:00.927Z,6.38
2023-05-21T17:01:27.718Z,6.35
2023-05-21T17:03:55.958Z,5.65
2023-05-21T17:06:23.637Z,8.15
2023-05-21T17:08:50.338Z,7.53
2023-05-21T17:11:17.756Z,6.35
2023-05-21T17:13:47.957Z,6.82
2023-05-21T17:16:14.925Z,5.68
2023-05-21T17:18:41.694Z,7.10
2023-05-21T17:21:09.879Z,6.28
2023-05-21T17:23:36.597Z,5.88
2023-05-21T17:26:03.330Z,6.60
2023-05-21T17:28:30.140Z,8.05
2023-05-21T17:30:56.831Z,7.22
2023-05-21T17:33:24.573Z,7.03
2023-05-21T17:35:51.190Z,7.28
2023-05-21T17:38:17.937Z,6.07
2023-05-21T17:40:44.747Z,8.18
2023-05-21T17:43:11.382Z,8.25
2023-05-21T17:45:38.248Z,6.10
2023-05-21T17:48:05.541Z,7.68
2023-05-21T17:50:32.254Z,8.30
2023-05-21T17:52:59.327Z,10.07
2023-05-21T17:55:25.903Z,6.50
2023-05-21T17:57:52.571Z,6.82
2023-05-21T18:00:19.602Z,8.20
2023-05-21T18:02:46.524Z,7.78
2023-05-21T18:05:13.723Z,6.63
2023-05-21T18:07:41.243Z,10.98
2023-05-21T18:10:08.210Z,6.10
2023-05-21T18:12:35.871Z,8.77
2023-05-21T18:15:03.131Z,8.18
2023-05-21T18:17:29.850Z,5.82
2023-05-21T18:19:56.413Z,7.68
2023-05-21T18:22:23.214Z,5.68
2023-05-21T18:24:50.051Z,8.45
2023-05-21T18:27:17.124Z,11.38
2023-05-21T18:29:43.877Z,7.10
2023-05-21T18:32:11.598Z,8.60
2023-05-21T18:34:38.441Z,8.60
2023-05-21T18:37:05.365Z,8.50
2023-05-21T18:39:32.118Z,8.35
2023-05-21T18:42:12.021Z,12.80
2023-05-21T18:44:39.898Z,7.75
2023-05-21T18:47:07.966Z,10.00
2023-05-21T18:49:36.255Z,8.90
2023-05-21T18:52:04.438Z,9.98
2023-05-21T18:54:31.412Z,10.00
2023-05-21T18:57:00.545Z,9.23
2023-05-21T18:59:28.643Z,11.05
2023-05-21T19:01:55.368Z,11.40
2023-05-21T19:04:22.414Z,8.05
2023-05-21T19:06:49.079Z,7.45
2023-05-21T19:09:15.890Z,11.18
2023-05-21T19:11:42.508Z,10.45
2023-05-21T19:14:09.243Z,7.07
2023-05-21T19:16:35.965Z,8.50
2023-05-21T19:19:03.359Z,8.63
2023-05-21T19:21:30.145Z,10.40
2023-05-21T19:23:57.442Z,15.00
2023-05-21T19:26:24.529Z,9.20
2023-05-21T19:28:53.781Z,8.60
2023-05-21T19:31:22.271Z,9.10
2023-05-21T19:33:49.235Z,9.85
2023-05-21T19:36:16.167Z,8.75
2023-05-21T19:38:50.058Z,8.82
2023-05-21T19:41:17.783Z,9.30
2023-05-21T19:46:11.607Z,8.93
2023-05-21T19:48:38.361Z,9.02
2023-05-21T19:51:05.134Z,9.45
2023-05-21T19:53:31.758Z,6.97
2023-05-21T19:55:58.575Z,7.68
2023-05-21T19:58:26.923Z,8.90
2023-05-21T20:00:58.484Z,11.00
2023-05-21T20:03:26.361Z,8.18
2023-05-21T20:05:53.383Z,10.40
2023-05-21T20:08:20.456Z,8.27
2023-05-21T20:10:48.866Z,11.18
2023-05-21T20:13:17.925Z,10.77
2023-05-21T20:15:44.539Z,10.70
2023-05-21T20:18:12.557Z,10.90
2023-05-21T20:20:40.792Z,10.82
2023-05-21T20:23:08.073Z,10.07
2023-05-21T20:25:34.704Z,9.20
2023-05-21T20:28:02.603Z,10.60
2023-05-21T20:30:32.814Z,13.13
2023-05-21T20:33:03.051Z,9.52
2023-05-21T20:35:30.600Z,9.65
2023-05-21T20:37:57.418Z,12.52
2023-05-21T20:40:24.024Z,12.50
2023-05-21T20:42:53.052Z,11.52
2023-05-21T20:45:20.997Z,9.07
2023-05-21T20:47:48.155Z,11.68
2023-05-21T20:50:17.268Z,11.40
2023-05-21T20:52:46.230Z,11.40
2023-05-21T20:55:14.519Z,10.27
2023-05-21T20:57:41.542Z,8.57
2023-05-21T21:00:10.948Z,10.70
2023-05-21T21:02:38.676Z,10.15
2023-05-21T21:05:06.372Z,13.40
2023-05-21T21:07:34.249Z,9.15
2023-05-21T21:10:01.484Z,9.73
2023-05-21T21:12:28.490Z,12.10
2023-05-21T21:14:55.769Z,12.80
2023-05-21T21:17:23.137Z,12.52
2023-05-21T21:19:50.016Z,11.82
2023-05-21T21:22:18.406Z,12.35
2023-05-21T21:24:45.796Z,10.77
2023-05-21T21:27:12.510Z,14.85
2023-05-21T21:29:41.716Z,12.77
2023-05-21T21:32:08.313Z,8.40
2023-05-21T21:34:34.948Z,13.30
2023-05-21T21:37:02.007Z,12.18
2023-05-21T21:39:28.820Z,10.60
2023-05-21T21:41:55.726Z,13.00
2023-05-21T21:44:22.703Z,10.50
2023-05-21T21:46:49.703Z,10.15
2023-05-21T21:49:19.342Z,11.25
2023-05-21T21:51:46.381Z,11.77
2023-05-21T21:54:16.209Z,11.65
2023-05-21T21:56:43.085Z,13.45
2023-05-21T21:59:10.094Z,11.60
2023-05-21T22:01:37.405Z,15.40
2023-05-21T22:04:04.306Z,11.18
2023-05-21T22:06:31.309Z,10.13
2023-05-21T22:08:58.184Z,9.65
2023-05-21T22:11:27.037Z,10.70
2023-05-21T22:13:53.899Z,13.13
2023-05-21T22:16:20.765Z,9.55
2023-05-21T22:18:47.611Z,15.55
2023-05-21T22:21:18.312Z,11.00
2023-05-21T22:23:45.042Z,10.40
2023-05-21T22:26:11.795Z,11.80
2023-05-21T22:28:38.551Z,10.73
2023-05-21T22:31:05.617Z,10.63
2023-05-21T22:33:32.436Z,14.15
2023-05-21T22:35:59.220Z,11.77
2023-05-21T22:38:26.408Z,9.77
2023-05-21T22:40:53.055Z,8.38
2023-05-21T22:43:20.236Z,16.60
2023-05-21T22:45:47.305Z,12.90
2023-05-21T22:48:14.408Z,13.40
2023-05-21T22:50:41.480Z,13.70
2023-05-21T22:53:08.477Z,15.98
2023-05-21T22:55:35.476Z,11.55
2023-05-21T22:58:02.397Z,9.13
2023-05-21T23:00:29.208Z,10.48
2023-05-21T23:02:56.217Z,10.60
2023-05-21T23:05:22.977Z,9.27
2023-05-21T23:07:49.820Z,9.77
2023-05-21T23:10:16.620Z,11.63
2023-05-21T23:12:43.481Z,10.32
2023-05-21T23:15:10.791Z,8.77
2023-05-21T23:17:38.107Z,12.95
2023-05-21T23:20:09.226Z,11.25
2023-05-21T23:22:36.706Z,16.75
2023-05-21T23:25:03.988Z,12.57
2023-05-21T23:27:30.781Z,8.40
2023-05-21T23:29:57.398Z,11.38
2023-05-21T23:32:24.427Z,10.88
2023-05-21T23:34:51.196Z,11.43
2023-05-21T23:37:19.372Z,11.65
2023-05-21T23:39:49.545Z,9.60
2023-05-21T23:42:17.486Z,13.93
2023-05-21T23:44:44.403Z,13.55
2023-05-21T23:47:11.314Z,12.70
2023-05-21T23:49:37.992Z,8.02
2023-05-21T23:52:05.462Z,15.88
2023-05-21T23:54:32.127Z,10.52
2023-05-21T23:56:58.786Z,9.57
2023-05-21T23:59:25.576Z,7.95
